Terminal Aerodrome Forecast
Issued by NWS Goodland, KS

Home | Current Version | Previous Version | Text Only | Print | Product List | Glossary On
Versions: 1 2 3 4 5 6 7 8 9 10 11 12 13 14 15 16 17 18 19 20 21 22 23 24 25 26
000
FTUS43 KGLD 280816 AAA
TAFGLD
TAF AMD
KGLD 280816Z 2808/2906 17010KT P6SM SCT200
     FM281000 VRB06KT P6SM FEW250
     FM281400 35010KT P6SM SKC
     FM282000 05009KT P6SM FEW100
     FM282300 12008KT P6SM SCT100 BKN150=

USA.gov is the U.S. government's official web portal to all federal, state and local government web resources and services.